Benson, Illinois
Current Conditions -  °F | °C
As of 5:55 PM on Sunday 23 Nov 2014 (Local Time) from KC75 Reporting Station
Light Rain Light Rain  
Wind Chill: 47°   Ceiling: 700
Heat Index: 49°   Visibility: 5mi
Dew Point: 48°   Wind: 5mph
Humidity: 95%   Direction: 130°SE
Pressure: 29.31"   Gusts: NA
Location:  40.85°N, 89.12°W
Report Text: KC75 232355Z AUTO 13004KT 5SM -RA BKN007 BKN014 OVC018 10/09 A2931 RMK AO2 P0007 60022 T00950087 10125 20095
Loading
Personal Weather Stations






























Interactive Weather Map New forecast layout! Learn more

10-Day Weather Forecast

Advertisements
Track Severe Weather on mobile